createdAt,value
2022-10-23T00:01:37.534Z,5.34
2022-10-23T00:04:12.120Z,5.34
2022-10-23T00:06:40.438Z,5.34
2022-10-23T00:09:09.898Z,5.36
2022-10-23T00:11:37.623Z,5.24
2022-10-23T00:14:07.300Z,5.21
2022-10-23T00:16:35.574Z,5.18
2022-10-23T00:19:04.116Z,5.17
2022-10-23T00:21:31.916Z,5.18
2022-10-23T00:23:59.761Z,5.22
2022-10-23T00:26:27.580Z,5.15
2022-10-23T00:28:55.750Z,5.14
2022-10-23T00:31:24.374Z,5.10
2022-10-23T00:33:52.593Z,5.11
2022-10-23T00:36:21.779Z,5.11
2022-10-23T00:38:49.770Z,5.07
2022-10-23T00:41:22.094Z,5.05
2022-10-23T00:44:07.456Z,5.07
2022-10-23T00:46:36.468Z,5.05
2022-10-23T00:49:04.453Z,5.04
2022-10-23T00:51:40.386Z,5.04
2022-10-23T00:54:25.456Z,5.03
2022-10-23T00:56:56.955Z,5.04
2022-10-23T00:59:25.239Z,5.03
2022-10-23T01:01:53.182Z,5.04
2022-10-23T01:04:22.540Z,5.03
2022-10-23T01:06:59.554Z,4.98
2022-10-23T01:09:40.630Z,4.97
2022-10-23T01:12:38.714Z,4.90
2022-10-23T01:15:15.386Z,4.95
2022-10-23T01:17:50.097Z,4.94
2022-10-23T01:20:23.999Z,5.03
2022-10-23T01:22:55.157Z,5.04
2022-10-23T01:25:39.077Z,4.99
2022-10-23T01:28:11.218Z,5.04
2022-10-23T01:30:42.935Z,5.00
2022-10-23T01:33:17.609Z,5.03
2022-10-23T01:35:52.106Z,5.05
2022-10-23T01:38:42.125Z,4.98
2022-10-23T01:41:28.606Z,4.97
2022-10-23T01:44:04.500Z,5.07
2022-10-23T01:46:35.562Z,5.06
2022-10-23T01:49:08.033Z,5.07
2022-10-23T01:51:38.639Z,5.11
2022-10-23T01:54:10.503Z,5.16
2022-10-23T01:56:41.267Z,5.18
2022-10-23T01:59:13.367Z,5.18
2022-10-23T02:01:45.590Z,5.22
2022-10-23T02:04:18.473Z,5.21
2022-10-23T02:06:46.176Z,5.23
2022-10-23T02:09:14.394Z,5.24
2022-10-23T02:11:54.159Z,5.27
2022-10-23T02:14:34.053Z,5.25
2022-10-23T02:17:12.224Z,5.24
2022-10-23T02:20:12.140Z,5.23
2022-10-23T02:22:46.772Z,5.21
2022-10-23T02:25:19.881Z,5.23
2022-10-23T02:27:50.952Z,5.24
2022-10-23T02:30:20.247Z,5.21
2022-10-23T02:32:53.572Z,5.22
2022-10-23T02:35:23.184Z,5.18
2022-10-23T02:37:55.800Z,5.19
2022-10-23T02:40:27.498Z,5.22
2022-10-23T02:43:01.026Z,5.25
2022-10-23T02:45:50.223Z,5.33
2022-10-23T02:48:23.349Z,5.37
2022-10-23T02:51:03.140Z,5.38
2022-10-23T02:53:43.856Z,5.41
2022-10-23T02:56:29.052Z,5.42
2022-10-23T02:59:21.171Z,5.40
2022-10-23T03:01:53.239Z,5.42
2022-10-23T03:04:24.915Z,5.45
2022-10-23T03:06:52.828Z,5.47
2022-10-23T03:09:20.593Z,5.47
2022-10-23T03:11:48.261Z,5.48
2022-10-23T03:14:15.953Z,5.48
2022-10-23T03:16:43.674Z,5.48
2022-10-23T03:19:14.372Z,5.52
2022-10-23T03:21:41.866Z,5.49
2022-10-23T03:24:09.544Z,5.49
2022-10-23T03:26:37.123Z,5.50
2022-10-23T03:29:04.668Z,5.50
2022-10-23T03:31:32.466Z,5.52
2022-10-23T03:34:00.501Z,5.54
2022-10-23T03:36:28.020Z,5.53
2022-10-23T03:38:56.922Z,5.52
2022-10-23T03:41:24.459Z,5.53
2022-10-23T03:43:51.999Z,5.54
2022-10-23T03:46:19.775Z,5.57
2022-10-23T03:48:47.409Z,5.54
2022-10-23T03:51:14.924Z,5.56
2022-10-23T03:53:42.470Z,5.54
2022-10-23T03:56:09.892Z,5.55
2022-10-23T03:58:37.457Z,5.57
2022-10-23T04:01:05.047Z,5.60
2022-10-23T04:03:32.513Z,5.58
2022-10-23T04:06:00.190Z,5.62
2022-10-23T04:08:27.894Z,5.64
2022-10-23T04:10:55.912Z,5.69
2022-10-23T04:13:23.689Z,5.68
2022-10-23T04:15:52.624Z,5.69
2022-10-23T04:18:20.410Z,5.70
2022-10-23T04:20:49.402Z,5.73
2022-10-23T04:23:17.918Z,5.74
2022-10-23T04:28:19.016Z,5.78
2022-10-23T04:30:46.592Z,5.77
2022-10-23T04:33:14.377Z,5.82
2022-10-23T04:35:42.039Z,5.82
2022-10-23T04:38:09.610Z,5.83
2022-10-23T04:40:37.614Z,5.86
2022-10-23T04:43:05.226Z,5.90
2022-10-23T04:45:32.708Z,5.92
2022-10-23T04:48:00.102Z,5.92
2022-10-23T04:50:27.679Z,5.91
2022-10-23T04:52:56.509Z,5.93
2022-10-23T04:55:25.467Z,5.94
2022-10-23T04:57:53.086Z,5.95
2022-10-23T05:00:20.910Z,5.97
2022-10-23T05:02:48.585Z,5.98
2022-10-23T05:05:18.304Z,5.99
2022-10-23T05:07:46.040Z,6.00
2022-10-23T05:10:13.817Z,6.00
2022-10-23T05:12:41.416Z,6.01
2022-10-23T05:15:09.288Z,6.01
2022-10-23T05:17:41.745Z,6.02
2022-10-23T05:20:14.459Z,6.01
2022-10-23T05:22:44.541Z,6.03
2022-10-23T05:25:13.235Z,6.04
2022-10-23T05:27:40.842Z,6.04
2022-10-23T05:30:09.525Z,6.02
2022-10-23T05:32:37.714Z,6.03
2022-10-23T05:35:09.749Z,6.04
2022-10-23T05:37:43.213Z,6.05
2022-10-23T05:40:11.631Z,6.05
2022-10-23T05:42:40.936Z,6.07
2022-10-23T05:45:09.942Z,6.11
2022-10-23T05:47:37.397Z,6.13
2022-10-23T05:50:05.362Z,6.12
2022-10-23T05:52:33.388Z,6.12
2022-10-23T05:55:01.101Z,6.15
2022-10-23T05:57:28.992Z,6.18
2022-10-23T05:59:56.589Z,6.18
2022-10-23T06:02:24.301Z,6.21
2022-10-23T06:04:52.117Z,6.19
2022-10-23T06:07:29.128Z,6.22
2022-10-23T06:09:58.939Z,6.21
2022-10-23T06:12:26.638Z,6.21
2022-10-23T06:14:54.386Z,6.21
2022-10-23T06:17:22.043Z,6.24
2022-10-23T06:19:50.265Z,6.27
2022-10-23T06:24:45.717Z,6.30
2022-10-23T06:27:13.260Z,6.33
2022-10-23T06:29:41.633Z,6.36
2022-10-23T06:32:09.399Z,6.39
2022-10-23T06:34:37.175Z,6.42
2022-10-23T06:37:04.877Z,6.46
2022-10-23T06:39:32.773Z,6.43
2022-10-23T06:42:00.484Z,6.44
2022-10-23T06:44:27.987Z,6.49
2022-10-23T06:46:55.664Z,6.50
2022-10-23T06:49:23.497Z,6.52
2022-10-23T06:51:51.214Z,6.55
2022-10-23T06:54:18.837Z,6.63
2022-10-23T06:56:46.361Z,6.65
2022-10-23T06:59:14.359Z,6.72
2022-10-23T07:01:42.047Z,6.76
2022-10-23T07:04:09.777Z,6.85
2022-10-23T07:06:37.396Z,6.88
2022-10-23T07:09:04.923Z,6.94
2022-10-23T07:11:32.657Z,6.97
2022-10-23T07:14:00.167Z,7.02
2022-10-23T07:16:27.699Z,7.05
2022-10-23T07:19:01.283Z,7.08
2022-10-23T07:21:31.940Z,7.15
2022-10-23T07:23:59.477Z,7.20
2022-10-23T07:26:27.721Z,7.26
2022-10-23T07:28:55.591Z,7.40
2022-10-23T07:31:27.975Z,7.36
2022-10-23T07:33:56.165Z,7.29
2022-10-23T07:36:24.264Z,7.22
2022-10-23T07:38:52.169Z,7.21
2022-10-23T07:41:19.752Z,7.19
2022-10-23T07:43:47.253Z,7.24
2022-10-23T07:46:15.011Z,7.22
2022-10-23T07:48:42.956Z,7.20
2022-10-23T07:51:15.921Z,7.19
2022-10-23T07:53:44.130Z,7.20
2022-10-23T07:56:22.976Z,7.19
2022-10-23T07:58:53.816Z,7.18
2022-10-23T08:01:26.221Z,7.17
2022-10-23T08:03:53.697Z,7.24
2022-10-23T08:06:21.142Z,7.26
2022-10-23T08:08:48.783Z,7.27
2022-10-23T08:11:24.844Z,7.26
2022-10-23T08:13:53.584Z,7.22
2022-10-23T08:16:21.769Z,7.21
2022-10-23T08:18:49.902Z,7.20
2022-10-23T08:21:18.118Z,7.21
2022-10-23T08:23:45.595Z,7.25
2022-10-23T08:26:13.459Z,7.26
2022-10-23T08:28:41.449Z,7.28
2022-10-23T08:31:14.675Z,7.31
2022-10-23T08:33:43.138Z,7.34
2022-10-23T08:36:19.355Z,7.39
2022-10-23T08:38:47.762Z,7.41
2022-10-23T08:41:26.315Z,7.43
2022-10-23T08:44:24.845Z,7.46
2022-10-23T08:47:13.786Z,7.49
2022-10-23T08:49:56.580Z,7.50
2022-10-23T08:52:50.908Z,7.49
2022-10-23T08:55:31.135Z,7.47
2022-10-23T08:58:24.517Z,7.44
2022-10-23T09:00:52.462Z,7.43
2022-10-23T09:03:21.549Z,7.44
2022-10-23T09:06:20.095Z,7.46
2022-10-23T09:09:04.943Z,7.46
2022-10-23T09:12:00.142Z,7.45
2022-10-23T09:15:08.480Z,7.41
2022-10-23T09:17:41.410Z,7.41
2022-10-23T09:20:22.327Z,7.46
2022-10-23T09:23:11.166Z,7.48
2022-10-23T09:25:40.475Z,7.49
2022-10-23T09:28:16.134Z,7.50
2022-10-23T09:30:43.557Z,7.50
2022-10-23T09:33:23.717Z,7.52
2022-10-23T09:36:14.220Z,7.50
2022-10-23T09:38:50.535Z,7.55
2022-10-23T09:41:26.489Z,7.55
2022-10-23T09:44:15.703Z,7.54
2022-10-23T09:46:45.879Z,7.52
2022-10-23T09:49:27.792Z,7.59
2022-10-23T09:52:10.290Z,7.59
2022-10-23T09:54:50.593Z,7.54
2022-10-23T09:57:27.277Z,7.58
2022-10-23T09:59:59.399Z,7.58
2022-10-23T10:02:33.386Z,7.58
2022-10-23T10:05:21.714Z,7.63
2022-10-23T10:08:03.667Z,7.71
2022-10-23T10:10:38.117Z,7.75
2022-10-23T10:13:33.310Z,7.84
2022-10-23T10:16:10.769Z,7.82
2022-10-23T10:18:56.361Z,7.85
2022-10-23T10:21:26.998Z,7.86
2022-10-23T10:24:16.131Z,7.90
2022-10-23T10:27:07.310Z,7.92
2022-10-23T10:29:52.280Z,7.99
2022-10-23T10:32:32.285Z,8.06
2022-10-23T10:34:59.665Z,8.11
2022-10-23T10:37:47.377Z,8.16
2022-10-23T10:40:33.280Z,8.08
2022-10-23T10:43:15.565Z,8.10
2022-10-23T10:45:57.589Z,8.07
2022-10-23T10:48:43.087Z,8.17
2022-10-23T10:51:22.161Z,8.30
2022-10-23T10:53:49.474Z,8.36
2022-10-23T10:56:19.185Z,8.33
2022-10-23T10:58:58.049Z,8.31
2022-10-23T11:02:00.214Z,8.33
2022-10-23T11:04:46.234Z,8.31
2022-10-23T11:07:17.787Z,8.28
2022-10-23T11:09:46.381Z,8.26
2022-10-23T11:12:20.584Z,8.31
2022-10-23T11:14:50.020Z,8.38
2022-10-23T11:18:01.060Z,8.43
2022-10-23T11:20:28.480Z,8.44
2022-10-23T11:22:58.507Z,8.41
2022-10-23T11:25:49.760Z,8.48
2022-10-23T11:28:28.845Z,8.46
2022-10-23T11:31:11.964Z,8.47
2022-10-23T11:33:51.979Z,8.50
2022-10-23T11:36:32.457Z,8.58
2022-10-23T11:39:16.546Z,8.51
2022-10-23T11:41:56.345Z,8.40
2022-10-23T11:44:49.414Z,8.42
2022-10-23T11:47:40.339Z,8.40
2022-10-23T11:50:08.202Z,8.31
2022-10-23T11:53:13.549Z,8.28
2022-10-23T11:55:57.630Z,8.27
2022-10-23T11:58:40.870Z,8.28
2022-10-23T12:01:30.719Z,8.27
2022-10-23T12:04:21.050Z,8.24
2022-10-23T12:06:55.437Z,8.18
2022-10-23T12:09:25.392Z,8.13
2022-10-23T12:12:15.772Z,8.10
2022-10-23T12:14:51.226Z,8.08
2022-10-23T12:17:24.883Z,8.09
2022-10-23T12:19:55.131Z,8.19
2022-10-23T12:22:28.253Z,8.28
2022-10-23T12:25:03.138Z,8.36
2022-10-23T12:27:39.245Z,8.35
2022-10-23T12:30:29.127Z,8.33
2022-10-23T12:33:24.843Z,8.33
2022-10-23T12:36:22.681Z,8.38
2022-10-23T12:38:50.848Z,8.46
2022-10-23T12:41:29.640Z,8.49
2022-10-23T12:43:58.892Z,8.54
2022-10-23T12:46:32.639Z,8.49
2022-10-23T12:49:02.344Z,8.46
2022-10-23T12:51:33.390Z,8.48
2022-10-23T12:54:02.744Z,8.45
2022-10-23T12:56:37.299Z,8.34
2022-10-23T12:59:14.123Z,8.29
2022-10-23T13:01:43.443Z,8.21
2022-10-23T13:04:14.179Z,8.15
2022-10-23T13:06:42.131Z,8.09
2022-10-23T13:09:39.603Z,8.07
2022-10-23T13:12:09.109Z,8.03
2022-10-23T13:14:43.642Z,7.98
2022-10-23T13:17:12.573Z,7.99
2022-10-23T13:19:40.373Z,7.96
2022-10-23T13:22:21.634Z,7.94
2022-10-23T13:24:49.358Z,7.93
2022-10-23T13:27:34.605Z,7.91
2022-10-23T13:30:03.264Z,7.92
2022-10-23T13:32:32.697Z,7.90
2022-10-23T13:35:21.066Z,7.89
2022-10-23T13:37:49.230Z,7.89
2022-10-23T13:40:26.120Z,7.88
2022-10-23T13:42:55.912Z,7.88
2022-10-23T13:45:26.773Z,7.86
2022-10-23T13:47:54.275Z,7.86
2022-10-23T13:50:21.770Z,7.85
2022-10-23T13:52:49.247Z,7.83
2022-10-23T13:55:24.746Z,7.84
2022-10-23T13:57:52.896Z,7.85
2022-10-23T14:00:20.623Z,7.87
2022-10-23T14:02:48.314Z,7.88
2022-10-23T14:05:15.813Z,7.90
2022-10-23T14:07:43.770Z,7.88
2022-10-23T14:10:11.729Z,7.87
2022-10-23T14:12:44.192Z,7.85
2022-10-23T14:15:11.969Z,7.86
2022-10-23T14:17:39.775Z,7.86
2022-10-23T14:20:08.386Z,7.86
2022-10-23T14:22:36.071Z,7.83
2022-10-23T14:25:04.270Z,7.82
2022-10-23T14:27:31.862Z,7.82
2022-10-23T14:29:59.533Z,7.82
2022-10-23T14:32:26.909Z,7.82
2022-10-23T14:34:54.743Z,7.79
2022-10-23T14:37:22.642Z,7.76
2022-10-23T14:39:50.539Z,7.74
2022-10-23T14:42:18.234Z,7.72
2022-10-23T14:44:46.555Z,7.70
2022-10-23T14:47:14.154Z,7.68
2022-10-23T14:49:42.591Z,7.67
2022-10-23T14:52:10.596Z,7.65
2022-10-23T14:54:38.217Z,7.63
2022-10-23T14:57:05.874Z,7.61
2022-10-23T14:59:33.702Z,7.60
2022-10-23T15:02:01.324Z,7.59
2022-10-23T15:04:29.059Z,7.57
2022-10-23T15:06:56.687Z,7.54
2022-10-23T15:09:25.313Z,7.51
2022-10-23T15:11:53.117Z,7.49
2022-10-23T15:14:21.153Z,7.46
2022-10-23T15:16:48.907Z,7.44
2022-10-23T15:19:18.700Z,7.45
2022-10-23T15:21:47.770Z,7.43
2022-10-23T15:24:16.594Z,7.43
2022-10-23T15:26:44.549Z,7.41
2022-10-23T15:29:14.512Z,7.41
2022-10-23T15:31:44.413Z,7.39
2022-10-23T15:34:18.866Z,7.39
2022-10-23T15:36:47.476Z,7.37
2022-10-23T15:39:18.559Z,7.35
2022-10-23T15:41:46.560Z,7.33
2022-10-23T15:44:17.345Z,7.33
2022-10-23T15:46:45.478Z,7.31
2022-10-23T15:49:13.639Z,7.31
2022-10-23T15:51:42.651Z,7.28
2022-10-23T15:54:18.968Z,7.24
2022-10-23T15:56:48.790Z,7.22
2022-10-23T15:59:17.354Z,7.20
2022-10-23T16:01:45.078Z,7.18
2022-10-23T16:04:13.503Z,7.19
2022-10-23T16:06:41.779Z,7.19
2022-10-23T16:09:10.123Z,7.15
2022-10-23T16:11:39.453Z,7.17
2022-10-23T16:14:07.951Z,7.16
2022-10-23T16:16:35.679Z,7.13
2022-10-23T16:19:05.078Z,7.17
2022-10-23T16:21:35.741Z,7.18
2022-10-23T16:24:05.965Z,7.21
2022-10-23T16:26:34.452Z,7.17
2022-10-23T16:29:05.367Z,7.19
2022-10-23T16:31:33.698Z,7.24
2022-10-23T16:34:02.903Z,7.29
2022-10-23T16:36:30.607Z,7.30
2022-10-23T16:38:58.926Z,7.29
2022-10-23T16:41:26.403Z,7.28
2022-10-23T16:43:54.063Z,7.34
2022-10-23T16:46:22.661Z,7.33
2022-10-23T16:48:51.730Z,7.34
2022-10-23T16:51:25.270Z,7.31
2022-10-23T16:53:53.650Z,7.24
2022-10-23T16:56:24.089Z,7.23
2022-10-23T16:58:51.903Z,7.22
2022-10-23T17:01:25.560Z,7.28
2022-10-23T17:03:54.481Z,7.37
2022-10-23T17:06:25.137Z,7.39
2022-10-23T17:08:53.906Z,7.41
2022-10-23T17:11:23.557Z,7.43
2022-10-23T17:13:59.134Z,7.46
2022-10-23T17:16:36.838Z,7.50
2022-10-23T17:19:15.797Z,7.52
2022-10-23T17:21:48.837Z,7.50
2022-10-23T17:24:17.393Z,7.50
2022-10-23T17:26:46.525Z,7.52
2022-10-23T17:29:15.230Z,7.54
2022-10-23T17:31:46.117Z,7.54
2022-10-23T17:34:19.657Z,7.55
2022-10-23T17:36:51.362Z,7.58
2022-10-23T17:39:22.564Z,7.61
2022-10-23T17:41:50.775Z,7.64
2022-10-23T17:44:18.993Z,7.63
2022-10-23T17:46:52.253Z,7.67
2022-10-23T17:49:21.289Z,7.71
2022-10-23T17:51:53.978Z,7.74
2022-10-23T17:54:24.665Z,7.77
2022-10-23T17:56:52.705Z,7.78
2022-10-23T17:59:20.616Z,7.77
2022-10-23T18:01:49.293Z,7.76
2022-10-23T18:04:18.880Z,7.72
2022-10-23T18:06:52.930Z,7.74
2022-10-23T18:09:22.345Z,7.77
2022-10-23T18:11:53.797Z,7.81
2022-10-23T18:14:22.137Z,7.82
2022-10-23T18:16:50.163Z,7.83
2022-10-23T18:19:18.669Z,7.81
2022-10-23T18:21:47.856Z,7.79
2022-10-23T18:24:15.972Z,7.76
2022-10-23T18:26:44.333Z,7.68
2022-10-23T18:29:13.385Z,7.62
2022-10-23T18:31:41.255Z,7.58
2022-10-23T18:34:19.725Z,7.55
2022-10-23T18:36:49.512Z,7.50
2022-10-23T18:39:22.519Z,7.51
2022-10-23T18:41:53.645Z,7.46
2022-10-23T18:44:22.553Z,7.43
2022-10-23T18:46:50.715Z,7.41
2022-10-23T18:49:19.897Z,7.41
2022-10-23T18:51:47.489Z,7.40
2022-10-23T18:54:17.642Z,7.39
2022-10-23T18:56:45.441Z,7.38
2022-10-23T18:59:16.652Z,7.37
2022-10-23T19:01:44.749Z,7.37
2022-10-23T19:04:15.835Z,7.40
2022-10-23T19:06:45.774Z,7.39
2022-10-23T19:09:14.399Z,7.43
2022-10-23T19:11:43.204Z,7.48
2022-10-23T19:14:11.113Z,7.52
2022-10-23T19:17:02.911Z,7.53
2022-10-23T19:19:36.095Z,7.55
2022-10-23T19:22:04.841Z,7.56
2022-10-23T19:24:38.134Z,7.56
2022-10-23T19:27:05.978Z,7.61
2022-10-23T19:29:35.622Z,7.61
2022-10-23T19:32:03.677Z,7.55
2022-10-23T19:34:31.337Z,7.49
2022-10-23T19:36:59.369Z,7.43
2022-10-23T19:39:27.539Z,7.43
2022-10-23T19:41:55.586Z,7.41
2022-10-23T19:44:23.607Z,7.36
2022-10-23T19:46:51.408Z,7.39
2022-10-23T19:49:20.398Z,7.37
2022-10-23T19:51:51.314Z,7.39
2022-10-23T19:54:21.232Z,7.34
2022-10-23T19:56:49.554Z,7.32
2022-10-23T19:59:18.062Z,7.31
2022-10-23T20:01:48.115Z,7.28
2022-10-23T20:04:18.845Z,7.22
2022-10-23T20:06:47.108Z,7.19
2022-10-23T20:09:14.840Z,7.17
2022-10-23T20:11:43.647Z,7.14
2022-10-23T20:14:12.153Z,7.13
2022-10-23T20:16:39.755Z,7.12
2022-10-23T20:19:12.938Z,7.12
2022-10-23T20:21:43.724Z,7.10
2022-10-23T20:24:13.133Z,7.09
2022-10-23T20:26:43.172Z,7.07
2022-10-23T20:29:12.291Z,7.07
2022-10-23T20:31:39.951Z,7.04
2022-10-23T20:34:08.250Z,7.08
2022-10-23T20:36:41.130Z,7.07
2022-10-23T20:39:16.164Z,7.05
2022-10-23T20:41:45.191Z,7.02
2022-10-23T20:44:14.303Z,7.01
2022-10-23T20:46:42.108Z,7.01
2022-10-23T20:49:10.195Z,6.97
2022-10-23T20:51:38.039Z,6.98
2022-10-23T20:54:06.224Z,7.05
2022-10-23T20:56:37.100Z,7.10
2022-10-23T20:59:07.724Z,7.12
2022-10-23T21:01:35.339Z,7.07
2022-10-23T21:04:03.723Z,7.06
2022-10-23T21:06:46.219Z,7.02
2022-10-23T21:09:24.214Z,7.00
2022-10-23T21:11:51.664Z,7.02
2022-10-23T21:14:19.043Z,7.01
2022-10-23T21:16:46.896Z,6.98
2022-10-23T21:19:16.098Z,6.96
2022-10-23T21:21:44.452Z,6.95
2022-10-23T21:24:16.498Z,6.90
2022-10-23T21:26:45.195Z,6.87
2022-10-23T21:29:18.649Z,6.85
2022-10-23T21:31:59.697Z,6.84
2022-10-23T21:34:28.002Z,6.86
2022-10-23T21:39:44.001Z,6.85
2022-10-23T21:42:15.417Z,6.86
2022-10-23T21:44:43.223Z,6.82
2022-10-23T21:47:10.772Z,6.80
2022-10-23T21:49:38.265Z,6.77
2022-10-23T21:52:05.994Z,6.75
2022-10-23T21:54:33.648Z,6.73
2022-10-23T21:57:03.280Z,6.70
2022-10-23T21:59:33.140Z,6.67
2022-10-23T22:02:03.250Z,6.66
2022-10-23T22:04:31.162Z,6.64
2022-10-23T22:06:58.842Z,6.64
2022-10-23T22:09:26.666Z,6.63
2022-10-23T22:11:55.131Z,6.63
2022-10-23T22:14:23.460Z,6.63
2022-10-23T22:16:52.283Z,6.62
2022-10-23T22:19:21.152Z,6.62
2022-10-23T22:21:49.766Z,6.61
2022-10-23T22:24:17.747Z,6.59
2022-10-23T22:26:51.712Z,6.55
2022-10-23T22:29:24.848Z,6.55
2022-10-23T22:31:53.011Z,6.54
2022-10-23T22:37:11.772Z,6.48
2022-10-23T22:39:39.667Z,6.50
2022-10-23T22:42:07.089Z,6.48
2022-10-23T22:44:34.766Z,6.48
2022-10-23T22:47:02.506Z,6.47
2022-10-23T22:49:30.152Z,6.43
2022-10-23T22:51:57.879Z,6.43
2022-10-23T22:54:25.402Z,6.41
2022-10-23T22:56:52.906Z,6.39
2022-10-23T22:59:20.660Z,6.39
2022-10-23T23:01:48.685Z,6.41
2022-10-23T23:07:07.981Z,6.36
2022-10-23T23:09:37.344Z,6.34
2022-10-23T23:12:05.556Z,6.34
2022-10-23T23:14:33.192Z,6.32
2022-10-23T23:17:01.022Z,6.31
2022-10-23T23:19:28.835Z,6.25
2022-10-23T23:21:58.608Z,6.23
2022-10-23T23:24:26.700Z,6.20
2022-10-23T23:26:54.207Z,6.17
2022-10-23T23:29:21.927Z,6.17
2022-10-23T23:31:49.610Z,6.16
2022-10-23T23:34:17.336Z,6.16
2022-10-23T23:36:45.052Z,6.16
2022-10-23T23:39:12.554Z,6.18
2022-10-23T23:41:40.075Z,6.16
2022-10-23T23:44:08.491Z,6.13
2022-10-23T23:46:35.963Z,6.11
2022-10-23T23:49:03.491Z,6.13
2022-10-23T23:51:31.173Z,6.10
2022-10-23T23:53:58.804Z,6.09
2022-10-23T23:56:26.494Z,6.12
2022-10-23T23:58:54.107Z,6.12
